sensor_id;sensor_type;location;lat;lon;timestamp;pressure;altitude;pressure_sealevel;temperature;humidity
22311;BME280;11323;49.610;11.016;2023-08-20T00:04:45;98525.19;;;24.15;67.28
22311;BME280;11323;49.610;11.016;2023-08-20T00:09:46;98531.97;;;24.11;67.37
22311;BME280;11323;49.610;11.016;2023-08-20T00:15:01;98529.09;;;24.13;67.13
22311;BME280;11323;49.610;11.016;2023-08-20T00:20:07;98506.97;;;23.94;67.39
22311;BME280;11323;49.610;11.016;2023-08-20T00:25:11;98534.63;;;24.11;67.48
22311;BME280;11323;49.610;11.016;2023-08-20T00:30:12;98535.22;;;24.13;67.75
22311;BME280;11323;49.610;11.016;2023-08-20T00:35:12;98514.69;;;24.02;67.63
22311;BME280;11323;49.610;11.016;2023-08-20T00:40:13;98520.84;;;24.02;67.75
22311;BME280;11323;49.610;11.016;2023-08-20T00:45:13;98485.38;;;23.83;67.71
22311;BME280;11323;49.610;11.016;2023-08-20T00:50:14;98504.47;;;23.99;67.61
22311;BME280;11323;49.610;11.016;2023-08-20T00:55:14;98520.84;;;24.02;67.57
22311;BME280;11323;49.610;11.016;2023-08-20T01:00:15;98528.16;;;24.07;67.72
22311;BME280;11323;49.610;11.016;2023-08-20T01:05:17;98510.72;;;23.86;67.80
22311;BME280;11323;49.610;11.016;2023-08-20T01:11:01;98539.72;;;23.94;67.77
22311;BME280;11323;49.610;11.016;2023-08-20T01:16:03;98546.72;;;23.88;68.17
22311;BME280;11323;49.610;11.016;2023-08-20T01:21:15;98553.69;;;23.89;68.16
22311;BME280;11323;49.610;11.016;2023-08-20T01:31:25;98556.66;;;23.81;68.47
22311;BME280;11323;49.610;11.016;2023-08-20T01:36:27;98551.00;;;23.71;68.46
22311;BME280;11323;49.610;11.016;2023-08-20T01:41:27;98547.00;;;23.62;68.42
22311;BME280;11323;49.610;11.016;2023-08-20T01:46:28;98558.75;;;23.54;68.31
22311;BME280;11323;49.610;11.016;2023-08-20T01:51:28;98561.63;;;23.52;68.46
22311;BME280;11323;49.610;11.016;2023-08-20T01:56:29;98537.63;;;23.34;68.57
22311;BME280;11323;49.610;11.016;2023-08-20T02:01:29;98572.69;;;23.49;68.66
22311;BME280;11323;49.610;11.016;2023-08-20T02:06:30;98537.91;;;23.25;68.90
22311;BME280;11323;49.610;11.016;2023-08-20T02:11:30;98571.06;;;23.48;68.86
22311;BME280;11323;49.610;11.016;2023-08-20T02:16:33;98537.91;;;23.25;68.93
22311;BME280;11323;49.610;11.016;2023-08-20T02:21:33;98560.72;;;23.40;69.01
22311;BME280;11323;49.610;11.016;2023-08-20T02:26:34;98563.94;;;23.42;69.17
22311;BME280;11323;49.610;11.016;2023-08-20T02:31:35;98560.47;;;23.41;69.19
22311;BME280;11323;49.610;11.016;2023-08-20T02:36:35;98576.66;;;23.40;69.19
22311;BME280;11323;49.610;11.016;2023-08-20T02:41:36;98566.09;;;23.33;69.24
22311;BME280;11323;49.610;11.016;2023-08-20T02:46:36;98574.59;;;23.42;69.32
22311;BME280;11323;49.610;11.016;2023-08-20T02:51:38;98570.75;;;23.38;69.21
22311;BME280;11323;49.610;11.016;2023-08-20T02:56:38;98537.19;;;23.11;69.16
22311;BME280;11323;49.610;11.016;2023-08-20T03:01:39;98553.69;;;23.20;69.39
22311;BME280;11323;49.610;11.016;2023-08-20T03:06:39;98558.41;;;23.18;69.60
22311;BME280;11323;49.610;11.016;2023-08-20T03:11:40;98566.19;;;23.13;69.66
22311;BME280;11323;49.610;11.016;2023-08-20T03:16:40;98526.34;;;22.81;69.93
22311;BME280;11323;49.610;11.016;2023-08-20T03:21:41;98559.31;;;22.98;70.25
22311;BME280;11323;49.610;11.016;2023-08-20T03:26:41;98560.19;;;22.92;70.32
22311;BME280;11323;49.610;11.016;2023-08-20T03:31:42;98575.72;;;22.95;70.54
22311;BME280;11323;49.610;11.016;2023-08-20T03:36:42;98554.97;;;22.79;70.74
22311;BME280;11323;49.610;11.016;2023-08-20T03:41:43;98565.38;;;22.80;70.74
22311;BME280;11323;49.610;11.016;2023-08-20T03:46:43;98542.19;;;22.62;70.56
22311;BME280;11323;49.610;11.016;2023-08-20T03:51:44;98569.31;;;22.71;70.73
22311;BME280;11323;49.610;11.016;2023-08-20T03:56:44;98568.91;;;22.67;70.69
22311;BME280;11323;49.610;11.016;2023-08-20T04:01:44;98571.41;;;22.62;70.77
22311;BME280;11323;49.610;11.016;2023-08-20T04:06:45;98567.34;;;22.53;70.94
22311;BME280;11323;49.610;11.016;2023-08-20T04:11:45;98558.00;;;22.44;70.96
22311;BME280;11323;49.610;11.016;2023-08-20T04:16:45;98584.31;;;22.52;70.92
22311;BME280;11323;49.610;11.016;2023-08-20T04:21:46;98578.44;;;22.43;71.04
22311;BME280;11323;49.610;11.016;2023-08-20T04:26:46;98596.56;;;22.53;71.12
22311;BME280;11323;49.610;11.016;2023-08-20T04:31:49;98582.28;;;22.47;71.28
22311;BME280;11323;49.610;11.016;2023-08-20T04:36:51;98587.41;;;22.49;71.16
22311;BME280;11323;49.610;11.016;2023-08-20T04:41:52;98597.59;;;22.52;71.44
22311;BME280;11323;49.610;11.016;2023-08-20T04:46:53;98589.03;;;22.50;71.27
22311;BME280;11323;49.610;11.016;2023-08-20T04:51:54;98603.09;;;22.57;71.37
22311;BME280;11323;49.610;11.016;2023-08-20T04:56:57;98598.81;;;22.56;71.60
22311;BME280;11323;49.610;11.016;2023-08-20T05:01:58;98593.91;;;22.53;71.38
22311;BME280;11323;49.610;11.016;2023-08-20T05:07:12;98611.84;;;22.64;71.58
22311;BME280;11323;49.610;11.016;2023-08-20T05:12:12;98610.22;;;22.63;71.42
22311;BME280;11323;49.610;11.016;2023-08-20T05:17:12;98588.00;;;22.51;71.49
22311;BME280;11323;49.610;11.016;2023-08-20T05:22:13;98593.28;;;22.58;71.67
22311;BME280;11323;49.610;11.016;2023-08-20T05:27:15;98594.69;;;22.67;71.64
22311;BME280;11323;49.610;11.016;2023-08-20T05:32:19;98620.31;;;22.93;71.45
22311;BME280;11323;49.610;11.016;2023-08-20T05:37:19;98618.28;;;22.89;71.69
22311;BME280;11323;49.610;11.016;2023-08-20T05:42:20;98609.88;;;22.92;71.78
22311;BME280;11323;49.610;11.016;2023-08-20T05:47:26;98615.41;;;22.90;72.01
22311;BME280;11323;49.610;11.016;2023-08-20T05:52:27;98622.69;;;23.02;71.97
22311;BME280;11323;49.610;11.016;2023-08-20T05:57:28;98621.69;;;23.03;71.89
22311;BME280;11323;49.610;11.016;2023-08-20T06:02:28;98620.81;;;23.09;71.96
22311;BME280;11323;49.610;11.016;2023-08-20T06:07:29;98612.63;;;23.10;71.87
22311;BME280;11323;49.610;11.016;2023-08-20T06:12:29;98606.91;;;23.13;71.67
22311;BME280;11323;49.610;11.016;2023-08-20T06:17:29;98627.44;;;23.32;71.28
22311;BME280;11323;49.610;11.016;2023-08-20T06:22:30;98621.09;;;23.33;71.38
22311;BME280;11323;49.610;11.016;2023-08-20T06:27:32;98624.09;;;23.43;71.48
22311;BME280;11323;49.610;11.016;2023-08-20T06:32:32;98614.84;;;23.52;70.66
22311;BME280;11323;49.610;11.016;2023-08-20T06:37:33;98617.66;;;23.57;70.88
22311;BME280;11323;49.610;11.016;2023-08-20T06:42:33;98611.72;;;23.55;69.98
22311;BME280;11323;49.610;11.016;2023-08-20T06:47:34;98647.88;;;23.88;69.45
22311;BME280;11323;49.610;11.016;2023-08-20T06:52:34;98602.16;;;23.73;69.06
22311;BME280;11323;49.610;11.016;2023-08-20T06:57:34;98623.06;;;23.95;68.85
22311;BME280;11323;49.610;11.016;2023-08-20T07:02:35;98657.41;;;24.21;68.72
22311;BME280;11323;49.610;11.016;2023-08-20T07:07:35;98634.66;;;24.26;68.46
22311;BME280;11323;49.610;11.016;2023-08-20T07:12:36;98635.53;;;24.38;68.61
22311;BME280;11323;49.610;11.016;2023-08-20T07:17:36;98655.00;;;24.57;67.96
22311;BME280;11323;49.610;11.016;2023-08-20T07:22:38;98667.53;;;24.75;68.17
22311;BME280;11323;49.610;11.016;2023-08-20T07:27:39;98649.91;;;24.74;68.12
22311;BME280;11323;49.610;11.016;2023-08-20T07:32:39;98651.91;;;24.79;67.78
22311;BME280;11323;49.610;11.016;2023-08-20T07:37:39;98665.63;;;24.94;67.59
22311;BME280;11323;49.610;11.016;2023-08-20T07:42:40;98665.09;;;25.04;67.25
22311;BME280;11323;49.610;11.016;2023-08-20T07:47:41;98651.19;;;25.02;67.34
22311;BME280;11323;49.610;11.016;2023-08-20T07:52:41;98630.69;;;25.03;67.18
22311;BME280;11323;49.610;11.016;2023-08-20T07:57:42;98639.31;;;25.28;66.94
22311;BME280;11323;49.610;11.016;2023-08-20T08:02:42;98640.06;;;25.36;66.35
22311;BME280;11323;49.610;11.016;2023-08-20T08:07:42;98647.66;;;25.51;66.22
22311;BME280;11323;49.610;11.016;2023-08-20T08:12:43;98654.50;;;25.70;65.52
22311;BME280;11323;49.610;11.016;2023-08-20T08:17:44;98676.09;;;25.81;65.26
22311;BME280;11323;49.610;11.016;2023-08-20T08:22:44;98671.81;;;25.80;64.93
22311;BME280;11323;49.610;11.016;2023-08-20T08:27:44;98678.47;;;25.89;64.76
22311;BME280;11323;49.610;11.016;2023-08-20T08:32:46;98662.75;;;25.81;64.64
22311;BME280;11323;49.610;11.016;2023-08-20T08:37:46;98699.63;;;26.14;63.96
22311;BME280;11323;49.610;11.016;2023-08-20T08:42:48;98671.97;;;26.09;63.80
22311;BME280;11323;49.610;11.016;2023-08-20T08:47:54;98671.88;;;26.15;63.30
22311;BME280;11323;49.610;11.016;2023-08-20T08:52:54;98696.13;;;26.38;62.48
22311;BME280;11323;49.610;11.016;2023-08-20T08:58:09;98684.97;;;26.41;62.49
22311;BME280;11323;49.610;11.016;2023-08-20T09:03:10;98694.38;;;26.55;61.81
22311;BME280;11323;49.610;11.016;2023-08-20T09:08:18;98674.63;;;26.56;61.56
22311;BME280;11323;49.610;11.016;2023-08-20T09:13:23;98683.75;;;26.60;61.10
22311;BME280;11323;49.610;11.016;2023-08-20T09:18:25;98685.72;;;26.77;60.92
22311;BME280;11323;49.610;11.016;2023-08-20T09:23:28;98701.16;;;26.87;60.56
22311;BME280;11323;49.610;11.016;2023-08-20T09:28:40;98684.31;;;26.86;61.42
22311;BME280;11323;49.610;11.016;2023-08-20T09:33:59;98700.72;;;27.19;60.32
22311;BME280;11323;49.610;11.016;2023-08-20T09:39:03;98669.81;;;27.11;60.05
22311;BME280;11323;49.610;11.016;2023-08-20T09:44:04;98694.31;;;27.37;59.76
22311;BME280;11323;49.610;11.016;2023-08-20T09:49:06;98699.53;;;27.43;59.05
22311;BME280;11323;49.610;11.016;2023-08-20T09:54:16;98697.00;;;27.66;57.81
22311;BME280;11323;49.610;11.016;2023-08-20T09:59:17;98689.28;;;27.86;58.33
22311;BME280;11323;49.610;11.016;2023-08-20T10:04:18;98674.38;;;27.56;57.15
22311;BME280;11323;49.610;11.016;2023-08-20T10:09:19;98685.88;;;27.74;57.16
22311;BME280;11323;49.610;11.016;2023-08-20T10:14:19;98647.75;;;27.50;57.25
22311;BME280;11323;49.610;11.016;2023-08-20T10:19:24;98667.06;;;27.86;55.94
22311;BME280;11323;49.610;11.016;2023-08-20T10:24:25;98649.69;;;27.88;55.24
22311;BME280;11323;49.610;11.016;2023-08-20T10:29:38;98681.22;;;28.38;55.27
22311;BME280;11323;49.610;11.016;2023-08-20T10:34:43;98684.81;;;28.26;55.51
22311;BME280;11323;49.610;11.016;2023-08-20T10:39:53;98691.63;;;28.34;55.29
22311;BME280;11323;49.610;11.016;2023-08-20T10:45:08;98691.63;;;28.34;55.29
22311;BME280;11323;49.610;11.016;2023-08-20T10:50:11;98683.34;;;28.58;54.61
22311;BME280;11323;49.610;11.016;2023-08-20T10:55:13;98665.25;;;28.48;54.61
22311;BME280;11323;49.610;11.016;2023-08-20T11:00:15;98665.91;;;28.38;54.95
22311;BME280;11323;49.610;11.016;2023-08-20T11:05:20;98687.13;;;28.62;54.77
22311;BME280;11323;49.610;11.016;2023-08-20T11:10:24;98652.78;;;28.59;53.78
22311;BME280;11323;49.610;11.016;2023-08-20T11:15:26;98672.53;;;28.52;55.14
22311;BME280;11323;49.610;11.016;2023-08-20T11:20:27;98669.75;;;28.42;55.53
22311;BME280;11323;49.610;11.016;2023-08-20T11:25:27;98658.25;;;28.25;54.88
22311;BME280;11323;49.610;11.016;2023-08-20T11:30:29;98673.44;;;28.36;56.32
22311;BME280;11323;49.610;11.016;2023-08-20T11:35:32;98649.22;;;28.31;55.40
22311;BME280;11323;49.610;11.016;2023-08-20T11:40:33;98631.53;;;28.30;56.21
22311;BME280;11323;49.610;11.016;2023-08-20T11:45:44;98661.16;;;28.62;55.82
22311;BME280;11323;49.610;11.016;2023-08-20T11:50:44;98652.84;;;28.64;54.28
22311;BME280;11323;49.610;11.016;2023-08-20T11:55:45;98647.06;;;28.72;54.74
22311;BME280;11323;49.610;11.016;2023-08-20T12:00:48;98639.50;;;28.69;55.06
22311;BME280;11323;49.610;11.016;2023-08-20T12:05:51;98644.00;;;28.86;54.11
22311;BME280;11323;49.610;11.016;2023-08-20T12:10:51;98625.66;;;28.77;54.50
22311;BME280;11323;49.610;11.016;2023-08-20T12:15:52;98641.38;;;28.91;54.83
22311;BME280;11323;49.610;11.016;2023-08-20T12:20:52;98639.84;;;29.00;54.62
22311;BME280;11323;49.610;11.016;2023-08-20T12:25:53;98629.03;;;28.90;54.52
22311;BME280;11323;49.610;11.016;2023-08-20T12:30:55;98640.31;;;28.92;54.48
22311;BME280;11323;49.610;11.016;2023-08-20T12:35:56;98635.47;;;28.94;54.19
22311;BME280;11323;49.610;11.016;2023-08-20T12:40:56;98626.91;;;28.92;54.37
22311;BME280;11323;49.610;11.016;2023-08-20T12:45:57;98595.22;;;28.89;53.53
22311;BME280;11323;49.610;11.016;2023-08-20T12:50:57;98615.22;;;29.03;53.45
22311;BME280;11323;49.610;11.016;2023-08-20T12:55:58;98618.47;;;29.10;54.07
22311;BME280;11323;49.610;11.016;2023-08-20T13:00:58;98614.66;;;29.01;54.18
22311;BME280;11323;49.610;11.016;2023-08-20T13:05:59;98620.25;;;29.00;54.68
22311;BME280;11323;49.610;11.016;2023-08-20T13:11:00;98595.72;;;28.86;54.38
22311;BME280;11323;49.610;11.016;2023-08-20T13:16:04;98596.56;;;28.91;54.27
22311;BME280;11323;49.610;11.016;2023-08-20T13:21:08;98590.44;;;28.96;54.19
22311;BME280;11323;49.610;11.016;2023-08-20T13:26:09;98562.06;;;29.00;54.14
22311;BME280;11323;49.610;11.016;2023-08-20T13:31:09;98585.88;;;29.24;53.66
22311;BME280;11323;49.610;11.016;2023-08-20T13:36:10;98580.03;;;29.32;53.78
22311;BME280;11323;49.610;11.016;2023-08-20T13:41:10;98569.75;;;29.24;53.88
22311;BME280;11323;49.610;11.016;2023-08-20T13:46:10;98576.75;;;29.25;53.57
22311;BME280;11323;49.610;11.016;2023-08-20T13:51:11;98569.88;;;29.34;51.74
22311;BME280;11323;49.610;11.016;2023-08-20T13:56:11;98581.81;;;29.54;52.58
22311;BME280;11323;49.610;11.016;2023-08-20T14:01:12;98577.00;;;29.56;51.22
22311;BME280;11323;49.610;11.016;2023-08-20T14:06:13;98559.31;;;29.60;51.70
22311;BME280;11323;49.610;11.016;2023-08-20T14:11:14;98568.44;;;29.64;52.14
22311;BME280;11323;49.610;11.016;2023-08-20T14:16:14;98539.34;;;29.46;52.00
22311;BME280;11323;49.610;11.016;2023-08-20T14:21:15;98538.75;;;29.38;51.98
22311;BME280;11323;49.610;11.016;2023-08-20T14:26:15;98527.28;;;29.48;51.71
22311;BME280;11323;49.610;11.016;2023-08-20T14:31:16;98546.09;;;29.53;50.85
22311;BME280;11323;49.610;11.016;2023-08-20T14:36:16;98549.09;;;29.62;51.11
22311;BME280;11323;49.610;11.016;2023-08-20T14:41:16;98543.66;;;29.52;51.70
22311;BME280;11323;49.610;11.016;2023-08-20T14:46:17;98548.00;;;29.58;51.41
22311;BME280;11323;49.610;11.016;2023-08-20T14:51:17;98535.44;;;29.64;51.56
22311;BME280;11323;49.610;11.016;2023-08-20T14:56:18;98527.38;;;29.64;51.58
22311;BME280;11323;49.610;11.016;2023-08-20T15:01:18;98506.06;;;29.47;51.71
22311;BME280;11323;49.610;11.016;2023-08-20T15:06:18;98506.06;;;29.47;51.71
22311;BME280;11323;49.610;11.016;2023-08-20T15:11:22;98544.38;;;29.85;51.91
22311;BME280;11323;49.610;11.016;2023-08-20T15:16:23;98537.09;;;29.75;51.04
22311;BME280;11323;49.610;11.016;2023-08-20T15:21:23;98528.72;;;29.66;50.36
22311;BME280;11323;49.610;11.016;2023-08-20T15:26:24;98520.06;;;29.54;49.91
22311;BME280;11323;49.610;11.016;2023-08-20T15:31:24;98525.47;;;29.64;50.22
22311;BME280;11323;49.610;11.016;2023-08-20T15:36:25;98503.38;;;29.47;50.44
22311;BME280;11323;49.610;11.016;2023-08-20T15:41:25;98520.59;;;29.56;50.51
22311;BME280;11323;49.610;11.016;2023-08-20T15:46:25;98511.97;;;29.49;50.82
22311;BME280;11323;49.610;11.016;2023-08-20T15:51:26;98504.44;;;29.46;50.63
22311;BME280;11323;49.610;11.016;2023-08-20T15:56:26;98514.63;;;29.43;50.13
22311;BME280;11323;49.610;11.016;2023-08-20T16:01:27;98479.84;;;29.21;51.20
22311;BME280;11323;49.610;11.016;2023-08-20T16:06:28;98496.19;;;29.20;52.17
22311;BME280;11323;49.610;11.016;2023-08-20T16:11:29;98500.19;;;29.17;53.24
22311;BME280;11323;49.610;11.016;2023-08-20T16:16:30;98518.22;;;29.22;53.43
22311;BME280;11323;49.610;11.016;2023-08-20T16:21:30;98508.53;;;29.16;54.22
22311;BME280;11323;49.610;11.016;2023-08-20T16:26:30;98524.13;;;29.24;54.98
22311;BME280;11323;49.610;11.016;2023-08-20T16:31:31;98534.88;;;29.29;55.34
22311;BME280;11323;49.610;11.016;2023-08-20T16:36:31;98523.03;;;29.20;55.41
22311;BME280;11323;49.610;11.016;2023-08-20T16:41:32;98520.25;;;29.09;55.58
22311;BME280;11323;49.610;11.016;2023-08-20T16:46:34;98537.78;;;29.17;55.70
22311;BME280;11323;49.610;11.016;2023-08-20T16:51:35;98521.81;;;29.00;56.14
22311;BME280;11323;49.610;11.016;2023-08-20T16:56:38;98524.44;;;28.95;56.17
22311;BME280;11323;49.610;11.016;2023-08-20T17:01:39;98523.34;;;28.91;56.59
22311;BME280;11323;49.610;11.016;2023-08-20T17:06:47;98542.13;;;28.91;56.55
22311;BME280;11323;49.610;11.016;2023-08-20T17:11:49;98537.44;;;28.76;57.37
22311;BME280;11323;49.610;11.016;2023-08-20T17:16:50;98548.66;;;28.73;57.78
22311;BME280;11323;49.610;11.016;2023-08-20T17:21:51;98546.41;;;28.64;57.89
22311;BME280;11323;49.610;11.016;2023-08-20T17:26:52;98539.81;;;28.50;58.93
22311;BME280;11323;49.610;11.016;2023-08-20T17:31:52;98533.53;;;28.39;59.15
22311;BME280;11323;49.610;11.016;2023-08-20T17:36:53;98514.53;;;28.18;59.70
22311;BME280;11323;49.610;11.016;2023-08-20T17:42:00;98509.88;;;28.09;60.52
22311;BME280;11323;49.610;11.016;2023-08-20T17:47:01;98533.81;;;27.98;60.78
22311;BME280;11323;49.610;11.016;2023-08-20T17:52:01;98532.91;;;27.87;61.26
22311;BME280;11323;49.610;11.016;2023-08-20T17:57:02;98532.69;;;27.72;61.72
22311;BME280;11323;49.610;11.016;2023-08-20T18:02:06;98500.53;;;27.33;62.26
22311;BME280;11323;49.610;11.016;2023-08-20T18:07:06;98507.84;;;27.20;62.36
22311;BME280;11323;49.610;11.016;2023-08-20T18:12:07;98560.59;;;27.42;62.34
22311;BME280;11323;49.610;11.016;2023-08-20T18:17:08;98558.81;;;27.31;62.46
22311;BME280;11323;49.610;11.016;2023-08-20T18:22:08;98555.16;;;27.20;62.45
22311;BME280;11323;49.610;11.016;2023-08-20T18:27:09;98553.63;;;27.07;63.33
22311;BME280;11323;49.610;11.016;2023-08-20T18:32:09;98564.88;;;26.92;63.60
22311;BME280;11323;49.610;11.016;2023-08-20T18:37:10;98584.66;;;26.91;63.28
22311;BME280;11323;49.610;11.016;2023-08-20T18:42:10;98567.75;;;26.73;63.70
22311;BME280;11323;49.610;11.016;2023-08-20T18:47:11;98546.44;;;26.49;63.97
22311;BME280;11323;49.610;11.016;2023-08-20T18:52:11;98571.41;;;26.55;64.03
22311;BME280;11323;49.610;11.016;2023-08-20T18:57:27;98556.50;;;26.30;63.81
22311;BME280;11323;49.610;11.016;2023-08-20T19:02:28;98607.69;;;26.51;64.60
22311;BME280;11323;49.610;11.016;2023-08-20T19:07:28;98605.84;;;26.40;64.71
22311;BME280;11323;49.610;11.016;2023-08-20T19:12:29;98563.38;;;26.02;64.68
22311;BME280;11323;49.610;11.016;2023-08-20T19:17:30;98587.53;;;26.08;64.92
22311;BME280;11323;49.610;11.016;2023-08-20T19:22:33;98603.56;;;26.08;65.38
22311;BME280;11323;49.610;11.016;2023-08-20T19:27:40;98628.75;;;26.24;65.41
22311;BME280;11323;49.610;11.016;2023-08-20T19:32:40;98582.56;;;25.87;65.99
22311;BME280;11323;49.610;11.016;2023-08-20T19:37:40;98593.13;;;25.82;66.09
22311;BME280;11323;49.610;11.016;2023-08-20T19:42:41;98644.81;;;26.12;66.11
22311;BME280;11323;49.610;11.016;2023-08-20T19:47:44;98635.38;;;25.97;66.62
22311;BME280;11323;49.610;11.016;2023-08-20T19:52:44;98623.31;;;25.83;66.38
22311;BME280;11323;49.610;11.016;2023-08-20T19:57:45;98631.78;;;25.80;66.62
22311;BME280;11323;49.610;11.016;2023-08-20T20:02:50;98636.56;;;25.78;66.55
22311;BME280;11323;49.610;11.016;2023-08-20T20:07:52;98615.88;;;25.61;66.76
22311;BME280;11323;49.610;11.016;2023-08-20T20:13:02;98621.66;;;25.58;66.83
22311;BME280;11323;49.610;11.016;2023-08-20T20:18:06;98662.19;;;25.67;67.05
22311;BME280;11323;49.610;11.016;2023-08-20T20:23:06;98653.56;;;25.53;67.37
22311;BME280;11323;49.610;11.016;2023-08-20T20:28:07;98646.47;;;25.47;67.68
22311;BME280;11323;49.610;11.016;2023-08-20T20:33:08;98660.28;;;25.43;67.70
22311;BME280;11323;49.610;11.016;2023-08-20T20:38:08;98664.56;;;25.44;67.97
22311;BME280;11323;49.610;11.016;2023-08-20T20:43:10;98628.13;;;25.08;67.86
22311;BME280;11323;49.610;11.016;2023-08-20T20:48:14;98629.41;;;25.05;67.85
22311;BME280;11323;49.610;11.016;2023-08-20T20:53:16;98673.78;;;25.30;67.85
22311;BME280;11323;49.610;11.016;2023-08-20T20:58:16;98655.75;;;25.13;67.97
22311;BME280;11323;49.610;11.016;2023-08-20T21:03:17;98623.53;;;24.85;68.16
22311;BME280;11323;49.610;11.016;2023-08-20T21:08:17;98631.09;;;24.88;68.63
22311;BME280;11323;49.610;11.016;2023-08-20T21:13:18;98636.44;;;24.88;68.38
22311;BME280;11323;49.610;11.016;2023-08-20T21:18:18;98632.72;;;24.70;68.41
22311;BME280;11323;49.610;11.016;2023-08-20T21:23:19;98664.91;;;24.87;68.73
22311;BME280;11323;49.610;11.016;2023-08-20T21:28:19;98681.75;;;24.88;68.88
22311;BME280;11323;49.610;11.016;2023-08-20T21:33:20;98683.34;;;24.89;68.69
22311;BME280;11323;49.610;11.016;2023-08-20T21:38:20;98647.63;;;24.59;69.08
22311;BME280;11323;49.610;11.016;2023-08-20T21:43:21;98657.75;;;24.69;68.65
22311;BME280;11323;49.610;11.016;2023-08-20T21:48:21;98679.16;;;24.81;69.21
22311;BME280;11323;49.610;11.016;2023-08-20T21:53:22;98688.38;;;24.78;68.87
22311;BME280;11323;49.610;11.016;2023-08-20T21:58:22;98647.53;;;24.47;69.00
22311;BME280;11323;49.610;11.016;2023-08-20T22:03:24;98701.88;;;24.83;69.30
22311;BME280;11323;49.610;11.016;2023-08-20T22:08:25;98662.94;;;24.64;69.29
22311;BME280;11323;49.610;11.016;2023-08-20T22:13:26;98692.09;;;24.77;69.17
22311;BME280;11323;49.610;11.016;2023-08-20T22:18:27;98687.16;;;24.81;69.12
22311;BME280;11323;49.610;11.016;2023-08-20T22:23:27;98695.50;;;24.85;69.07
22311;BME280;11323;49.610;11.016;2023-08-20T22:28:28;98635.41;;;24.51;68.93
22311;BME280;11323;49.610;11.016;2023-08-20T22:33:28;98689.94;;;24.86;68.96
22311;BME280;11323;49.610;11.016;2023-08-20T22:38:29;98651.16;;;24.72;68.92
22311;BME280;11323;49.610;11.016;2023-08-20T22:43:29;98705.78;;;25.00;69.17
22311;BME280;11323;49.610;11.016;2023-08-20T22:48:29;98712.66;;;25.07;68.77
22311;BME280;11323;49.610;11.016;2023-08-20T22:53:30;98704.50;;;25.02;68.72
22311;BME280;11323;49.610;11.016;2023-08-20T22:58:30;98700.38;;;25.06;68.85
22311;BME280;11323;49.610;11.016;2023-08-20T23:03:31;98708.97;;;25.08;68.91
22311;BME280;11323;49.610;11.016;2023-08-20T23:08:31;98719.28;;;25.05;68.92
22311;BME280;11323;49.610;11.016;2023-08-20T23:13:31;98700.44;;;25.00;68.99
22311;BME280;11323;49.610;11.016;2023-08-20T23:18:32;98682.31;;;24.90;68.90
22311;BME280;11323;49.610;11.016;2023-08-20T23:23:32;98682.47;;;24.95;69.51
22311;BME280;11323;49.610;11.016;2023-08-20T23:28:35;98694.59;;;24.91;69.32
22311;BME280;11323;49.610;11.016;2023-08-20T23:33:36;98681.59;;;24.82;69.71
22311;BME280;11323;49.610;11.016;2023-08-20T23:38:37;98686.25;;;24.87;69.61
22311;BME280;11323;49.610;11.016;2023-08-20T23:43:40;98679.72;;;24.83;69.74
22311;BME280;11323;49.610;11.016;2023-08-20T23:48:42;98647.75;;;24.64;69.43
22311;BME280;11323;49.610;11.016;2023-08-20T23:53:42;98631.31;;;24.49;69.93
22311;BME280;11323;49.610;11.016;2023-08-20T23:58:42;98688.03;;;24.75;69.98
